createdAt,value
2023-02-04T00:00:55.701Z,34.05
2023-02-04T00:03:22.305Z,34.12
2023-02-04T00:05:48.694Z,34.12
2023-02-04T00:08:15.064Z,34.13
2023-02-04T00:10:41.417Z,33.84
2023-02-04T00:13:07.751Z,34.00
2023-02-04T00:15:34.079Z,34.32
2023-02-04T00:18:00.417Z,34.12
2023-02-04T00:20:26.765Z,34.16
2023-02-04T00:22:53.143Z,34.08
2023-02-04T00:25:19.457Z,33.91
2023-02-04T00:27:46.046Z,33.85
2023-02-04T00:30:12.738Z,34.23
2023-02-04T00:32:39.055Z,34.36
2023-02-04T00:35:05.626Z,34.41
2023-02-04T00:37:32.217Z,34.17
2023-02-04T00:39:58.531Z,34.22
2023-02-04T00:42:24.864Z,34.30
2023-02-04T00:44:51.234Z,34.28
2023-02-04T00:47:17.569Z,34.29
2023-02-04T00:49:43.889Z,34.50
2023-02-04T00:52:10.225Z,34.05
2023-02-04T00:54:36.545Z,34.45
2023-02-04T00:57:03.099Z,34.15
2023-02-04T00:59:29.649Z,34.23
2023-02-04T01:01:55.974Z,34.49
2023-02-04T01:04:23.375Z,34.34
2023-02-04T01:06:49.715Z,34.26
2023-02-04T01:09:16.027Z,34.35
2023-02-04T01:11:42.364Z,34.31
2023-02-04T01:14:08.688Z,34.38
2023-02-04T01:16:35.063Z,34.31
2023-02-04T01:19:01.444Z,34.40
2023-02-04T01:21:27.766Z,34.36
2023-02-04T01:23:54.170Z,34.24
2023-02-04T01:26:20.651Z,34.68
2023-02-04T01:28:46.983Z,34.33
2023-02-04T01:31:13.394Z,34.42
2023-02-04T01:33:39.792Z,34.29
2023-02-04T01:36:06.148Z,34.33
2023-02-04T01:38:32.473Z,34.55
2023-02-04T01:40:58.786Z,34.64
2023-02-04T01:43:25.206Z,34.71
2023-02-04T01:45:51.608Z,34.78
2023-02-04T01:48:20.454Z,34.58
2023-02-04T01:50:47.673Z,34.80
2023-02-04T01:53:14.819Z,34.80
2023-02-04T01:55:41.359Z,34.79
2023-02-04T01:58:09.369Z,35.05
2023-02-04T02:00:35.704Z,34.72
2023-02-04T02:03:03.373Z,34.57
2023-02-04T02:05:39.484Z,34.63
2023-02-04T02:08:05.797Z,34.63
2023-02-04T02:10:32.346Z,34.53
2023-02-04T02:12:58.845Z,34.55
2023-02-04T02:15:25.273Z,34.60
2023-02-04T02:17:52.111Z,34.39
2023-02-04T02:20:18.803Z,34.64
2023-02-04T02:22:58.042Z,34.85
2023-02-04T02:25:24.364Z,34.82
2023-02-04T02:27:50.733Z,34.52
2023-02-04T02:30:17.662Z,34.49
2023-02-04T02:32:44.916Z,34.53
2023-02-04T02:35:11.300Z,34.57
2023-02-04T02:37:37.631Z,34.98
2023-02-04T02:40:03.954Z,34.83
2023-02-04T02:42:30.275Z,34.88
2023-02-04T02:44:56.597Z,34.85
2023-02-04T02:47:22.993Z,35.04
2023-02-04T02:49:50.059Z,35.01
2023-02-04T02:52:16.388Z,34.82
2023-02-04T02:54:42.710Z,34.90
2023-02-04T02:57:12.829Z,34.90
2023-02-04T02:59:39.150Z,34.94
2023-02-04T03:02:06.512Z,34.70
2023-02-04T03:04:34.294Z,34.94
2023-02-04T03:07:00.618Z,34.89
2023-02-04T03:09:26.964Z,34.96
2023-02-04T03:11:53.348Z,34.97
2023-02-04T03:14:19.666Z,34.93
2023-02-04T03:16:46.028Z,35.18
2023-02-04T03:19:12.768Z,34.99
2023-02-04T03:21:39.204Z,34.86
2023-02-04T03:24:05.624Z,35.01
2023-02-04T03:26:31.930Z,34.69
2023-02-04T03:28:58.586Z,35.03
2023-02-04T03:31:25.021Z,34.83
2023-02-04T03:33:51.377Z,34.72
2023-02-04T03:36:17.744Z,34.84
2023-02-04T03:38:44.077Z,34.87
2023-02-04T03:41:10.387Z,34.89
2023-02-04T03:43:36.694Z,35.03
2023-02-04T03:46:03.481Z,35.04
2023-02-04T03:48:30.013Z,35.05
2023-02-04T03:50:56.348Z,35.03
2023-02-04T03:53:22.699Z,34.83
2023-02-04T03:55:49.252Z,34.99
2023-02-04T03:58:15.573Z,34.79
2023-02-04T04:00:41.887Z,34.88
2023-02-04T04:03:08.308Z,34.93
2023-02-04T04:05:34.758Z,34.88
2023-02-04T04:08:01.095Z,34.63
2023-02-04T04:10:29.354Z,34.84
2023-02-04T04:12:55.868Z,34.65
2023-02-04T04:15:22.180Z,34.96
2023-02-04T04:17:48.495Z,34.97
2023-02-04T04:20:14.872Z,34.85
2023-02-04T04:22:41.274Z,34.90
2023-02-04T04:25:07.758Z,35.03
2023-02-04T04:27:34.087Z,35.06
2023-02-04T04:30:00.746Z,34.81
2023-02-04T04:32:27.064Z,34.97
2023-02-04T04:34:53.374Z,34.99
2023-02-04T04:37:19.688Z,34.99
2023-02-04T04:39:45.998Z,34.98
2023-02-04T04:42:12.367Z,35.08
2023-02-04T04:44:38.737Z,34.82
2023-02-04T04:47:05.042Z,34.92
2023-02-04T04:49:31.793Z,35.06
2023-02-04T04:51:58.099Z,34.79
2023-02-04T04:54:24.420Z,35.11
2023-02-04T04:56:50.734Z,34.94
2023-02-04T04:59:17.226Z,34.79
2023-02-04T05:01:43.532Z,34.92
2023-02-04T05:04:09.850Z,34.81
2023-02-04T05:06:36.181Z,34.79
2023-02-04T05:09:02.492Z,34.62
2023-02-04T05:11:28.800Z,34.97
2023-02-04T05:13:55.107Z,34.64
2023-02-04T05:16:21.463Z,34.88
2023-02-04T05:18:47.852Z,34.90
2023-02-04T05:21:14.242Z,34.82
2023-02-04T05:23:40.793Z,35.05
2023-02-04T05:26:07.226Z,34.90
2023-02-04T05:28:33.549Z,34.85
2023-02-04T05:31:00.007Z,34.76
2023-02-04T05:33:27.068Z,34.86
2023-02-04T05:35:53.391Z,34.79
2023-02-04T05:38:19.730Z,34.76
2023-02-04T05:40:46.064Z,34.79
2023-02-04T05:43:12.442Z,34.88
2023-02-04T05:45:38.814Z,34.87
2023-02-04T05:48:05.189Z,34.81
2023-02-04T05:50:31.877Z,34.76
2023-02-04T05:52:58.587Z,34.87
2023-02-04T05:55:24.890Z,34.44
2023-02-04T05:57:51.221Z,34.55
2023-02-04T06:00:17.534Z,34.52
2023-02-04T06:02:44.075Z,34.37
2023-02-04T06:05:10.636Z,34.25
2023-02-04T06:07:37.008Z,34.18
2023-02-04T06:10:03.348Z,34.17
2023-02-04T06:12:29.660Z,34.50
2023-02-04T06:14:56.104Z,34.88
2023-02-04T06:17:22.420Z,34.80
2023-02-04T06:19:48.730Z,34.57
2023-02-04T06:22:15.068Z,34.87
2023-02-04T06:24:41.375Z,34.94
2023-02-04T06:27:07.695Z,34.88
2023-02-04T06:29:34.013Z,34.85
2023-02-04T06:32:00.642Z,35.06
2023-02-04T06:34:27.006Z,34.87
2023-02-04T06:36:53.328Z,34.95
2023-02-04T06:39:21.094Z,34.90
2023-02-04T06:41:47.411Z,34.74
2023-02-04T06:44:13.764Z,34.83
2023-02-04T06:46:40.079Z,34.87
2023-02-04T06:49:06.388Z,34.35
2023-02-04T06:51:33.753Z,34.38
2023-02-04T06:54:00.363Z,34.14
2023-02-04T06:56:29.233Z,34.29
2023-02-04T06:58:55.560Z,34.54
2023-02-04T07:01:21.898Z,34.49
2023-02-04T07:03:48.251Z,34.29
2023-02-04T07:06:14.555Z,34.43
2023-02-04T07:08:41.157Z,34.29
2023-02-04T07:11:07.472Z,34.46
2023-02-04T07:13:33.844Z,34.49
2023-02-04T07:16:00.246Z,34.60
2023-02-04T07:18:26.582Z,34.15
2023-02-04T07:20:52.924Z,34.08
2023-02-04T07:23:19.538Z,33.98
2023-02-04T07:25:45.860Z,33.88
2023-02-04T07:28:12.237Z,34.03
2023-02-04T07:30:38.674Z,34.49
2023-02-04T07:33:05.050Z,34.45
2023-02-04T07:35:31.372Z,34.53
2023-02-04T07:37:57.685Z,34.64
2023-02-04T07:40:24.000Z,34.26
2023-02-04T07:42:50.305Z,34.00
2023-02-04T07:45:16.641Z,33.96
2023-02-04T07:47:42.975Z,33.69
2023-02-04T07:50:09.382Z,33.61
2023-02-04T07:52:35.709Z,33.64
2023-02-04T07:55:02.020Z,33.54
2023-02-04T07:57:29.949Z,33.35
2023-02-04T07:59:56.293Z,33.35
2023-02-04T08:02:22.705Z,33.28
2023-02-04T08:04:49.031Z,33.25
2023-02-04T08:07:15.334Z,33.47
2023-02-04T08:09:41.654Z,33.13
2023-02-04T08:12:07.971Z,33.03
2023-02-04T08:14:34.315Z,33.08
2023-02-04T08:17:00.626Z,32.96
2023-02-04T08:19:26.949Z,32.86
2023-02-04T08:21:53.795Z,32.82
2023-02-04T08:24:20.115Z,32.46
2023-02-04T08:26:46.435Z,32.12
2023-02-04T08:29:12.810Z,33.69
2023-02-04T08:31:39.996Z,32.85
2023-02-04T08:34:06.351Z,34.28
2023-02-04T08:36:32.668Z,32.59
2023-02-04T08:38:58.986Z,31.83
2023-02-04T08:41:25.319Z,31.46
2023-02-04T08:43:51.738Z,31.22
2023-02-04T08:46:18.139Z,31.12
2023-02-04T08:48:44.488Z,30.14
2023-02-04T08:51:10.823Z,30.70
2023-02-04T08:53:37.674Z,30.47
2023-02-04T08:56:04.087Z,30.54
2023-02-04T08:58:30.471Z,30.60
2023-02-04T09:00:56.817Z,30.76
2023-02-04T09:03:23.825Z,30.44
2023-02-04T09:05:50.176Z,30.49
2023-02-04T09:08:16.499Z,30.25
2023-02-04T09:10:42.840Z,30.54
2023-02-04T09:13:11.685Z,30.48
2023-02-04T09:15:38.285Z,30.41
2023-02-04T09:18:11.979Z,30.18
2023-02-04T09:20:39.161Z,30.45
2023-02-04T09:23:08.876Z,30.55
2023-02-04T09:25:35.203Z,30.73
2023-02-04T09:28:01.670Z,30.76
2023-02-04T09:30:28.021Z,31.24
2023-02-04T09:32:54.333Z,31.35
2023-02-04T09:35:20.666Z,31.38
2023-02-04T09:37:46.979Z,31.63
2023-02-04T09:40:14.172Z,31.61
2023-02-04T09:42:40.486Z,31.79
2023-02-04T09:45:07.152Z,31.93
2023-02-04T09:47:33.935Z,31.67
2023-02-04T09:50:00.255Z,31.84
2023-02-04T09:52:27.165Z,31.78
2023-02-04T09:54:53.475Z,31.72
2023-02-04T09:57:19.871Z,31.77
2023-02-04T09:59:46.183Z,31.76
2023-02-04T10:02:25.062Z,31.67
2023-02-04T10:04:51.548Z,31.80
2023-02-04T10:07:17.970Z,31.81
2023-02-04T10:09:44.376Z,31.98
2023-02-04T10:12:10.940Z,31.92
2023-02-04T10:14:37.341Z,32.00
2023-02-04T10:17:03.772Z,32.16
2023-02-04T10:19:30.233Z,32.21
2023-02-04T10:21:56.561Z,32.32
2023-02-04T10:24:26.345Z,32.33
2023-02-04T10:26:52.784Z,32.49
2023-02-04T10:29:20.078Z,32.47
2023-02-04T10:31:47.258Z,32.26
2023-02-04T10:34:15.877Z,32.29
2023-02-04T10:36:44.984Z,32.42
2023-02-04T10:39:12.680Z,32.35
2023-02-04T10:41:40.021Z,32.29
2023-02-04T10:44:12.699Z,32.41
2023-02-04T10:46:39.023Z,32.15
2023-02-04T10:49:05.684Z,32.15
2023-02-04T10:51:32.143Z,32.04
2023-02-04T10:54:16.985Z,32.19
2023-02-04T10:56:43.533Z,32.19
2023-02-04T10:59:17.194Z,32.15
2023-02-04T11:01:43.540Z,32.25
2023-02-04T11:04:10.229Z,32.29
2023-02-04T11:06:36.563Z,32.10
2023-02-04T11:09:04.167Z,32.06
2023-02-04T11:11:30.480Z,32.02
2023-02-04T11:13:56.748Z,31.99
2023-02-04T11:16:23.152Z,32.13
2023-02-04T11:18:50.404Z,32.06
2023-02-04T11:21:22.770Z,31.94
2023-02-04T11:23:49.089Z,31.92
2023-02-04T11:26:21.670Z,32.13
2023-02-04T11:28:51.316Z,32.05
2023-02-04T11:31:20.415Z,32.02
2023-02-04T11:33:46.836Z,31.72
2023-02-04T11:36:14.718Z,31.59
2023-02-04T11:38:49.094Z,31.66
2023-02-04T11:41:25.452Z,31.91
2023-02-04T11:43:52.170Z,31.87
2023-02-04T11:46:19.089Z,32.21
2023-02-04T11:48:45.509Z,32.18
2023-02-04T11:51:13.064Z,32.22
2023-02-04T11:53:39.375Z,32.17
2023-02-04T11:56:05.714Z,32.06
2023-02-04T11:58:32.073Z,32.22
2023-02-04T12:00:58.470Z,32.09
2023-02-04T12:03:30.455Z,32.11
2023-02-04T12:05:57.313Z,31.86
2023-02-04T12:08:23.568Z,31.87
2023-02-04T12:10:50.132Z,32.03
2023-02-04T12:13:17.473Z,32.03
2023-02-04T12:15:44.380Z,31.96
2023-02-04T12:18:12.798Z,31.96
2023-02-04T12:20:39.519Z,32.10
2023-02-04T12:23:06.189Z,32.10
2023-02-04T12:25:32.854Z,32.01
2023-02-04T12:27:59.578Z,31.91
2023-02-04T12:30:26.171Z,31.81
2023-02-04T12:32:52.498Z,31.74
2023-02-04T12:35:18.944Z,31.76
2023-02-04T12:37:45.248Z,31.84
2023-02-04T12:40:15.007Z,31.78
2023-02-04T12:42:41.594Z,32.02
2023-02-04T12:45:08.090Z,31.97
2023-02-04T12:47:34.402Z,31.63
2023-02-04T12:50:00.837Z,31.75
2023-02-04T12:52:27.164Z,31.74
2023-02-04T12:54:53.552Z,31.89
2023-02-04T12:57:19.911Z,31.79
2023-02-04T12:59:46.824Z,32.23
2023-02-04T13:02:13.458Z,32.32
2023-02-04T13:04:40.459Z,32.35
2023-02-04T13:07:07.859Z,32.47
2023-02-04T13:09:34.515Z,32.50
2023-02-04T13:12:00.830Z,32.55
2023-02-04T13:14:27.140Z,32.38
2023-02-04T13:16:53.462Z,32.55
2023-02-04T13:21:46.308Z,32.69
2023-02-04T13:24:12.636Z,32.77
2023-02-04T13:26:38.952Z,32.64
2023-02-04T13:29:05.487Z,32.82
2023-02-04T13:31:31.818Z,33.15
2023-02-04T13:33:58.146Z,33.07
2023-02-04T13:36:26.787Z,33.23
2023-02-04T13:38:53.109Z,33.26
2023-02-04T13:41:19.447Z,33.26
2023-02-04T13:43:45.797Z,33.22
2023-02-04T13:46:12.192Z,33.09
2023-02-04T13:48:38.572Z,33.09
2023-02-04T13:51:06.404Z,33.02
2023-02-04T13:53:32.714Z,32.94
2023-02-04T13:55:59.106Z,32.91
2023-02-04T13:58:25.463Z,32.83
2023-02-04T14:00:51.817Z,32.66
2023-02-04T14:03:18.200Z,32.84
2023-02-04T14:05:44.536Z,32.74
2023-02-04T14:08:10.848Z,32.84
2023-02-04T14:10:38.762Z,32.99
2023-02-04T14:13:05.252Z,32.78
2023-02-04T14:15:31.570Z,32.88
2023-02-04T14:17:57.911Z,32.91
2023-02-04T14:20:24.257Z,33.06
2023-02-04T14:22:50.598Z,33.07
2023-02-04T14:25:16.917Z,33.09
2023-02-04T14:27:43.343Z,32.95
2023-02-04T14:30:16.628Z,32.99
2023-02-04T14:32:43.011Z,33.10
2023-02-04T14:35:09.324Z,32.82
2023-02-04T14:37:35.640Z,33.02
2023-02-04T14:40:01.986Z,33.02
2023-02-04T14:42:28.315Z,33.03
2023-02-04T14:44:54.630Z,33.19
2023-02-04T14:47:20.963Z,32.92
2023-02-04T14:49:47.268Z,33.10
2023-02-04T14:52:14.590Z,32.96
2023-02-04T14:54:41.229Z,33.10
2023-02-04T14:57:11.459Z,33.11
2023-02-04T14:59:40.999Z,33.12
2023-02-04T15:02:07.352Z,33.20
2023-02-04T15:04:33.696Z,33.02
2023-02-04T15:07:00.112Z,33.13
2023-02-04T15:09:26.437Z,33.10
2023-02-04T15:11:52.765Z,33.12
2023-02-04T15:14:19.097Z,33.18
2023-02-04T15:16:48.057Z,33.11
2023-02-04T15:19:14.861Z,33.07
2023-02-04T15:21:41.200Z,33.09
2023-02-04T15:24:07.518Z,33.21
2023-02-04T15:26:33.836Z,33.19
2023-02-04T15:29:00.142Z,33.15
2023-02-04T15:31:27.318Z,33.24
2023-02-04T15:33:53.790Z,33.29
2023-02-04T15:36:20.097Z,33.22
2023-02-04T15:38:46.412Z,33.01
2023-02-04T15:41:12.947Z,33.43
2023-02-04T15:43:39.255Z,33.32
2023-02-04T15:46:05.590Z,33.30
2023-02-04T15:48:32.293Z,33.32
2023-02-04T15:50:58.596Z,33.31
2023-02-04T15:53:25.075Z,33.21
2023-02-04T15:55:51.392Z,33.05
2023-02-04T15:58:17.720Z,33.08
2023-02-04T16:00:44.030Z,33.19
2023-02-04T16:03:10.572Z,33.14
2023-02-04T16:05:36.885Z,32.93
2023-02-04T16:08:03.181Z,33.17
2023-02-04T16:10:29.473Z,32.65
2023-02-04T16:12:59.842Z,32.29
2023-02-04T16:15:26.118Z,32.55
2023-02-04T16:17:52.400Z,32.61
2023-02-04T16:20:18.767Z,32.36
2023-02-04T16:22:45.067Z,32.41
2023-02-04T16:25:11.346Z,32.09
2023-02-04T16:27:37.618Z,31.66
2023-02-04T16:30:04.034Z,31.81
2023-02-04T16:32:33.439Z,31.91
2023-02-04T16:35:00.690Z,31.81
2023-02-04T16:37:27.055Z,32.16
2023-02-04T16:39:53.349Z,31.70
2023-02-04T16:42:19.668Z,31.56
2023-02-04T16:44:45.960Z,31.75
2023-02-04T16:47:12.262Z,31.71
2023-02-04T16:49:38.785Z,31.60
2023-02-04T16:52:05.237Z,31.78
2023-02-04T16:54:31.852Z,31.54
2023-02-04T16:57:00.371Z,31.93
2023-02-04T16:59:27.078Z,31.98
2023-02-04T17:01:53.415Z,31.88
2023-02-04T17:04:19.761Z,32.28
2023-02-04T17:06:46.098Z,32.37
2023-02-04T17:09:12.407Z,32.62
2023-02-04T17:11:38.811Z,32.27
2023-02-04T17:14:06.132Z,32.34
2023-02-04T17:16:32.508Z,32.85
2023-02-04T17:18:58.802Z,32.80
2023-02-04T17:21:27.711Z,32.83
2023-02-04T17:23:55.207Z,32.81
2023-02-04T17:26:23.383Z,32.96
2023-02-04T17:28:50.702Z,32.82
2023-02-04T17:31:17.023Z,32.90
2023-02-04T17:33:43.412Z,32.84
2023-02-04T17:36:10.148Z,32.70
2023-02-04T17:38:36.430Z,33.20
2023-02-04T17:41:02.785Z,33.39
2023-02-04T17:43:29.307Z,33.43
2023-02-04T17:45:55.590Z,33.16
2023-02-04T17:48:21.900Z,33.47
2023-02-04T17:50:48.179Z,33.67
2023-02-04T17:53:14.479Z,33.43
2023-02-04T17:55:40.769Z,33.58
2023-02-04T17:58:10.395Z,33.50
2023-02-04T18:00:36.830Z,33.51
2023-02-04T18:03:03.268Z,33.45
2023-02-04T18:05:30.794Z,33.03
2023-02-04T18:08:01.968Z,33.38
2023-02-04T18:10:33.020Z,33.13
2023-02-04T18:12:59.725Z,33.11
2023-02-04T18:15:27.962Z,33.52
2023-02-04T18:18:17.298Z,33.31
2023-02-04T18:20:43.598Z,33.64
2023-02-04T18:23:16.821Z,33.71
2023-02-04T18:25:43.135Z,33.70
2023-02-04T18:28:16.596Z,33.60
2023-02-04T18:30:43.593Z,33.64
2023-02-04T18:33:23.302Z,33.83
2023-02-04T18:35:52.553Z,33.25
2023-02-04T18:38:28.934Z,33.57
2023-02-04T18:41:15.431Z,33.45
2023-02-04T18:43:41.756Z,33.22
2023-02-04T18:46:16.368Z,33.15
2023-02-04T18:48:51.902Z,33.17
2023-02-04T18:51:25.783Z,33.47
2023-02-04T18:53:52.595Z,33.18
2023-02-04T18:56:18.877Z,33.38
2023-02-04T18:58:49.099Z,33.37
2023-02-04T19:01:23.805Z,33.32
2023-02-04T19:03:51.635Z,33.25
2023-02-04T19:06:18.083Z,33.23
2023-02-04T19:08:44.388Z,33.98
2023-02-04T19:11:29.442Z,33.91
2023-02-04T19:13:56.854Z,34.30
2023-02-04T19:16:26.680Z,34.08
2023-02-04T19:18:53.311Z,34.47
2023-02-04T19:21:27.151Z,34.46
2023-02-04T19:23:59.164Z,34.82
2023-02-04T19:26:29.888Z,34.80
2023-02-04T19:28:56.211Z,34.99
2023-02-04T19:31:22.646Z,34.97
2023-02-04T19:33:50.345Z,35.12
2023-02-04T19:36:35.524Z,35.42
2023-02-04T19:39:13.979Z,35.03
2023-02-04T19:41:45.833Z,35.69
2023-02-04T19:44:12.452Z,35.26
2023-02-04T19:46:38.987Z,34.94
2023-02-04T19:49:22.546Z,34.96
2023-02-04T19:51:51.318Z,35.24
2023-02-04T19:54:19.815Z,35.46
2023-02-04T19:56:46.142Z,35.63
2023-02-04T19:59:28.458Z,35.11
2023-02-04T20:02:20.791Z,35.13
2023-02-04T20:04:47.939Z,35.30
2023-02-04T20:07:21.841Z,35.27
2023-02-04T20:09:48.212Z,35.12
2023-02-04T20:12:15.464Z,35.52
2023-02-04T20:14:43.422Z,35.71
2023-02-04T20:17:17.177Z,35.55
2023-02-04T20:19:43.537Z,35.58
2023-02-04T20:22:18.983Z,35.30
2023-02-04T20:24:46.023Z,35.52
2023-02-04T20:27:19.034Z,35.48
2023-02-04T20:29:45.539Z,35.26
2023-02-04T20:32:27.881Z,35.49
2023-02-04T20:34:55.849Z,35.25
2023-02-04T20:37:23.254Z,35.09
2023-02-04T20:39:49.570Z,35.01
2023-02-04T20:42:35.105Z,34.62
2023-02-04T20:45:20.096Z,34.41
2023-02-04T20:47:46.514Z,34.31
2023-02-04T20:50:37.859Z,33.88
2023-02-04T20:53:13.026Z,34.04
2023-02-04T20:55:39.384Z,33.62
2023-02-04T20:58:10.969Z,33.23
2023-02-04T21:00:39.241Z,33.08
2023-02-04T21:03:14.790Z,33.15
2023-02-04T21:05:41.146Z,32.70
2023-02-04T21:08:21.341Z,33.18
2023-02-04T21:10:47.682Z,33.21
2023-02-04T21:13:14.015Z,32.66
2023-02-04T21:15:40.342Z,32.99
2023-02-04T21:18:06.678Z,32.91
2023-02-04T21:20:34.696Z,32.88
2023-02-04T21:23:01.040Z,32.37
2023-02-04T21:25:27.348Z,32.43
2023-02-04T21:27:54.639Z,32.45
2023-02-04T21:30:23.354Z,32.42
2023-02-04T21:32:49.807Z,32.49
2023-02-04T21:35:21.259Z,32.54
2023-02-04T21:37:47.571Z,32.51
2023-02-04T21:40:13.896Z,32.13
2023-02-04T21:42:40.212Z,32.35
2023-02-04T21:45:06.743Z,32.06
2023-02-04T21:47:33.324Z,31.98
2023-02-04T21:49:59.631Z,32.60
2023-02-04T21:52:26.119Z,32.10
2023-02-04T21:54:52.433Z,32.48
2023-02-04T21:57:18.744Z,32.61
2023-02-04T21:59:48.228Z,32.00
2023-02-04T22:02:14.577Z,32.32
2023-02-04T22:04:40.908Z,32.11
2023-02-04T22:07:07.257Z,32.11
2023-02-04T22:09:33.596Z,31.92
2023-02-04T22:11:59.912Z,31.94
2023-02-04T22:14:26.484Z,31.95
2023-02-04T22:16:52.795Z,31.97
2023-02-04T22:19:19.604Z,32.20
2023-02-04T22:21:45.926Z,32.24
2023-02-04T22:24:12.253Z,32.30
2023-02-04T22:26:38.572Z,32.01
2023-02-04T22:29:04.912Z,32.21
2023-02-04T22:31:31.537Z,32.41
2023-02-04T22:33:57.880Z,31.97
2023-02-04T22:36:24.223Z,32.03
2023-02-04T22:38:51.345Z,32.26
2023-02-04T22:41:17.943Z,32.37
2023-02-04T22:43:44.264Z,32.42
2023-02-04T22:46:10.622Z,32.11
2023-02-04T22:48:36.948Z,32.16
2023-02-04T22:51:03.733Z,32.52
2023-02-04T22:53:30.248Z,32.08
2023-02-04T22:55:56.585Z,32.47
2023-02-04T22:58:22.947Z,32.30
2023-02-04T23:00:49.282Z,32.07
2023-02-04T23:03:15.732Z,32.21
2023-02-04T23:05:42.044Z,32.01
2023-02-04T23:08:08.375Z,32.03
2023-02-04T23:10:34.689Z,32.15
2023-02-04T23:13:01.130Z,32.26
2023-02-04T23:15:27.486Z,31.94
2023-02-04T23:17:54.034Z,31.68
2023-02-04T23:20:20.359Z,31.89
2023-02-04T23:22:46.664Z,31.43
2023-02-04T23:25:12.986Z,31.33
2023-02-04T23:27:39.290Z,31.33
2023-02-04T23:30:06.345Z,31.57
2023-02-04T23:32:32.705Z,31.38
2023-02-04T23:34:59.342Z,31.41
2023-02-04T23:37:25.664Z,30.94
2023-02-04T23:39:51.994Z,30.86
2023-02-04T23:42:18.335Z,30.87
2023-02-04T23:44:44.679Z,31.18
2023-02-04T23:47:10.999Z,31.06
2023-02-04T23:49:37.322Z,31.08
2023-02-04T23:52:03.678Z,30.96
2023-02-04T23:54:30.024Z,31.07
2023-02-04T23:56:56.414Z,31.06
2023-02-04T23:59:22.732Z,30.91
